sensor_id;sensor_type;location;lat;lon;timestamp;temperature;humidity
7143;DHT22;3613;48.902;9.204;2023-09-12T00:00:05;16.70;99.90
7143;DHT22;3613;48.902;9.204;2023-09-12T00:02:33;16.70;99.90
7143;DHT22;3613;48.902;9.204;2023-09-12T00:04:59;16.70;99.90
7143;DHT22;3613;48.902;9.204;2023-09-12T00:07:24;16.60;99.90
7143;DHT22;3613;48.902;9.204;2023-09-12T00:09:52;16.70;99.90
7143;DHT22;3613;48.902;9.204;2023-09-12T00:12:21;16.70;99.90
7143;DHT22;3613;48.902;9.204;2023-09-12T00:14:47;16.60;99.90
7143;DHT22;3613;48.902;9.204;2023-09-12T00:17:17;16.60;99.90
7143;DHT22;3613;48.902;9.204;2023-09-12T00:19:46;16.60;99.90
7143;DHT22;3613;48.902;9.204;2023-09-12T00:22:14;16.60;99.90
7143;DHT22;3613;48.902;9.204;2023-09-12T00:24:39;16.60;99.90
7143;DHT22;3613;48.902;9.204;2023-09-12T00:27:05;16.60;99.90
7143;DHT22;3613;48.902;9.204;2023-09-12T00:29:31;16.60;99.90
7143;DHT22;3613;48.902;9.204;2023-09-12T00:31:57;16.60;99.90
7143;DHT22;3613;48.902;9.204;2023-09-12T00:34:28;16.60;99.90
7143;DHT22;3613;48.902;9.204;2023-09-12T00:36:53;16.50;99.90
7143;DHT22;3613;48.902;9.204;2023-09-12T00:39:21;16.50;99.90
7143;DHT22;3613;48.902;9.204;2023-09-12T00:41:51;16.40;99.90
7143;DHT22;3613;48.902;9.204;2023-09-12T00:44:16;16.40;99.90
7143;DHT22;3613;48.902;9.204;2023-09-12T00:46:43;16.40;99.90
7143;DHT22;3613;48.902;9.204;2023-09-12T00:49:12;16.50;99.90
7143;DHT22;3613;48.902;9.204;2023-09-12T00:51:39;16.50;99.90
7143;DHT22;3613;48.902;9.204;2023-09-12T00:54:04;16.40;99.90
7143;DHT22;3613;48.902;9.204;2023-09-12T00:56:35;16.40;99.90
7143;DHT22;3613;48.902;9.204;2023-09-12T00:59:04;16.40;99.90
7143;DHT22;3613;48.902;9.204;2023-09-12T01:01:34;16.40;99.90
7143;DHT22;3613;48.902;9.204;2023-09-12T01:04:00;16.40;99.90
7143;DHT22;3613;48.902;9.204;2023-09-12T01:06:29;16.40;99.90
7143;DHT22;3613;48.902;9.204;2023-09-12T01:08:57;16.40;99.90
7143;DHT22;3613;48.902;9.204;2023-09-12T01:11:24;16.40;99.90
7143;DHT22;3613;48.902;9.204;2023-09-12T01:13:49;16.40;99.90
7143;DHT22;3613;48.902;9.204;2023-09-12T01:16:15;16.30;99.90
7143;DHT22;3613;48.902;9.204;2023-09-12T01:18:41;16.30;99.90
7143;DHT22;3613;48.902;9.204;2023-09-12T01:24:45;16.30;99.90
7143;DHT22;3613;48.902;9.204;2023-09-12T01:27:31;16.30;99.90
7143;DHT22;3613;48.902;9.204;2023-09-12T01:30:01;16.30;99.90
7143;DHT22;3613;48.902;9.204;2023-09-12T01:32:27;16.20;99.90
7143;DHT22;3613;48.902;9.204;2023-09-12T01:34:56;16.40;99.90
7143;DHT22;3613;48.902;9.204;2023-09-12T01:37:25;16.40;99.90
7143;DHT22;3613;48.902;9.204;2023-09-12T01:39:51;16.20;99.90
7143;DHT22;3613;48.902;9.204;2023-09-12T01:42:20;16.10;99.90
7143;DHT22;3613;48.902;9.204;2023-09-12T01:44:47;16.10;99.90
7143;DHT22;3613;48.902;9.204;2023-09-12T01:47:15;16.00;99.90
7143;DHT22;3613;48.902;9.204;2023-09-12T01:49:44;16.00;99.90
7143;DHT22;3613;48.902;9.204;2023-09-12T01:52:11;16.00;99.90
7143;DHT22;3613;48.902;9.204;2023-09-12T01:54:37;16.00;99.90
7143;DHT22;3613;48.902;9.204;2023-09-12T01:57:03;16.00;99.90
7143;DHT22;3613;48.902;9.204;2023-09-12T01:59:30;15.90;99.90
7143;DHT22;3613;48.902;9.204;2023-09-12T02:01:55;15.90;99.90
7143;DHT22;3613;48.902;9.204;2023-09-12T02:04:21;15.90;99.90
7143;DHT22;3613;48.902;9.204;2023-09-12T02:06:49;15.90;99.90
7143;DHT22;3613;48.902;9.204;2023-09-12T02:09:17;15.90;99.90
7143;DHT22;3613;48.902;9.204;2023-09-12T02:11:45;15.90;99.90
7143;DHT22;3613;48.902;9.204;2023-09-12T02:14:13;15.80;99.90
7143;DHT22;3613;48.902;9.204;2023-09-12T02:16:41;15.90;99.90
7143;DHT22;3613;48.902;9.204;2023-09-12T02:19:08;15.90;99.90
7143;DHT22;3613;48.902;9.204;2023-09-12T02:21:35;15.90;99.90
7143;DHT22;3613;48.902;9.204;2023-09-12T02:24:01;15.80;99.90
7143;DHT22;3613;48.902;9.204;2023-09-12T02:26:26;15.70;99.90
7143;DHT22;3613;48.902;9.204;2023-09-12T02:28:52;15.70;99.90
7143;DHT22;3613;48.902;9.204;2023-09-12T02:31:18;15.70;99.90
7143;DHT22;3613;48.902;9.204;2023-09-12T02:33:43;15.80;99.90
7143;DHT22;3613;48.902;9.204;2023-09-12T02:36:09;15.80;99.90
7143;DHT22;3613;48.902;9.204;2023-09-12T02:38:37;15.90;99.90
7143;DHT22;3613;48.902;9.204;2023-09-12T02:41:05;16.00;99.90
7143;DHT22;3613;48.902;9.204;2023-09-12T02:43:31;15.90;99.90
7143;DHT22;3613;48.902;9.204;2023-09-12T02:45:57;16.00;99.90
7143;DHT22;3613;48.902;9.204;2023-09-12T02:48:23;15.90;99.90
7143;DHT22;3613;48.902;9.204;2023-09-12T02:50:48;15.90;99.90
7143;DHT22;3613;48.902;9.204;2023-09-12T02:53:14;15.90;99.90
7143;DHT22;3613;48.902;9.204;2023-09-12T02:55:40;15.90;99.90
7143;DHT22;3613;48.902;9.204;2023-09-12T02:58:06;15.90;99.90
7143;DHT22;3613;48.902;9.204;2023-09-12T03:00:32;16.00;99.90
7143;DHT22;3613;48.902;9.204;2023-09-12T03:02:57;15.80;99.90
7143;DHT22;3613;48.902;9.204;2023-09-12T03:05:25;15.80;99.90
7143;DHT22;3613;48.902;9.204;2023-09-12T03:07:50;15.70;99.90
7143;DHT22;3613;48.902;9.204;2023-09-12T03:10:16;15.80;99.90
7143;DHT22;3613;48.902;9.204;2023-09-12T03:12:42;15.70;99.90
7143;DHT22;3613;48.902;9.204;2023-09-12T03:15:08;15.70;99.90
7143;DHT22;3613;48.902;9.204;2023-09-12T03:17:36;15.60;99.90
7143;DHT22;3613;48.902;9.204;2023-09-12T03:20:01;15.70;99.90
7143;DHT22;3613;48.902;9.204;2023-09-12T03:22:31;15.50;99.90
7143;DHT22;3613;48.902;9.204;2023-09-12T03:24:58;15.50;99.90
7143;DHT22;3613;48.902;9.204;2023-09-12T03:27:26;15.60;99.90
7143;DHT22;3613;48.902;9.204;2023-09-12T03:29:51;15.50;99.90
7143;DHT22;3613;48.902;9.204;2023-09-12T03:32:19;15.50;99.90
7143;DHT22;3613;48.902;9.204;2023-09-12T03:34:47;15.40;99.90
7143;DHT22;3613;48.902;9.204;2023-09-12T03:37:12;15.40;99.90
7143;DHT22;3613;48.902;9.204;2023-09-12T03:39:38;15.40;99.90
7143;DHT22;3613;48.902;9.204;2023-09-12T03:42:04;15.40;99.90
7143;DHT22;3613;48.902;9.204;2023-09-12T03:44:30;15.40;99.90
7143;DHT22;3613;48.902;9.204;2023-09-12T03:46:57;15.30;99.90
7143;DHT22;3613;48.902;9.204;2023-09-12T03:49:28;15.40;99.90
7143;DHT22;3613;48.902;9.204;2023-09-12T03:51:53;15.40;99.90
7143;DHT22;3613;48.902;9.204;2023-09-12T03:54:21;15.40;99.90
7143;DHT22;3613;48.902;9.204;2023-09-12T03:56:47;15.40;99.90
7143;DHT22;3613;48.902;9.204;2023-09-12T03:59:13;15.30;99.90
7143;DHT22;3613;48.902;9.204;2023-09-12T04:01:38;15.40;99.90
7143;DHT22;3613;48.902;9.204;2023-09-12T04:04:06;15.40;99.90
7143;DHT22;3613;48.902;9.204;2023-09-12T04:06:32;15.40;99.90
7143;DHT22;3613;48.902;9.204;2023-09-12T04:08:57;15.50;99.90
7143;DHT22;3613;48.902;9.204;2023-09-12T04:11:25;15.40;99.90
7143;DHT22;3613;48.902;9.204;2023-09-12T04:13:50;15.50;99.90
7143;DHT22;3613;48.902;9.204;2023-09-12T04:16:16;15.60;99.90
7143;DHT22;3613;48.902;9.204;2023-09-12T04:18:44;15.60;99.90
7143;DHT22;3613;48.902;9.204;2023-09-12T04:21:12;15.60;99.90
7143;DHT22;3613;48.902;9.204;2023-09-12T04:23:37;15.70;99.90
7143;DHT22;3613;48.902;9.204;2023-09-12T04:26:05;15.70;99.90
7143;DHT22;3613;48.902;9.204;2023-09-12T04:28:33;15.80;99.90
7143;DHT22;3613;48.902;9.204;2023-09-12T04:31:03;15.90;99.90
7143;DHT22;3613;48.902;9.204;2023-09-12T04:33:28;15.90;99.90
7143;DHT22;3613;48.902;9.204;2023-09-12T04:35:57;15.90;99.90
7143;DHT22;3613;48.902;9.204;2023-09-12T04:38:23;15.90;99.90
7143;DHT22;3613;48.902;9.204;2023-09-12T04:40:59;16.00;99.90
7143;DHT22;3613;48.902;9.204;2023-09-12T04:43:28;16.10;99.90
7143;DHT22;3613;48.902;9.204;2023-09-12T04:45:54;16.10;99.90
7143;DHT22;3613;48.902;9.204;2023-09-12T04:48:20;16.10;99.90
7143;DHT22;3613;48.902;9.204;2023-09-12T04:50:46;16.20;99.90
7143;DHT22;3613;48.902;9.204;2023-09-12T04:53:14;16.20;99.90
7143;DHT22;3613;48.902;9.204;2023-09-12T04:55:39;16.20;99.90
7143;DHT22;3613;48.902;9.204;2023-09-12T04:58:05;16.20;99.90
7143;DHT22;3613;48.902;9.204;2023-09-12T05:00:33;16.40;99.90
7143;DHT22;3613;48.902;9.204;2023-09-12T05:03:00;16.40;99.90
7143;DHT22;3613;48.902;9.204;2023-09-12T05:05:26;16.60;99.90
7143;DHT22;3613;48.902;9.204;2023-09-12T05:07:54;16.50;99.90
7143;DHT22;3613;48.902;9.204;2023-09-12T05:10:20;16.70;99.90
7143;DHT22;3613;48.902;9.204;2023-09-12T05:12:45;16.80;99.90
7143;DHT22;3613;48.902;9.204;2023-09-12T05:15:11;17.10;99.90
7143;DHT22;3613;48.902;9.204;2023-09-12T05:17:36;17.30;99.90
7143;DHT22;3613;48.902;9.204;2023-09-12T05:20:03;17.70;99.90
7143;DHT22;3613;48.902;9.204;2023-09-12T05:22:31;18.10;30.00
7143;DHT22;3613;48.902;9.204;2023-09-12T05:24:57;18.50;1.00
7143;DHT22;3613;48.902;9.204;2023-09-12T05:27:22;19.00;1.00
7143;DHT22;3613;48.902;9.204;2023-09-12T05:29:50;19.70;1.00
7143;DHT22;3613;48.902;9.204;2023-09-12T05:32:16;20.40;1.00
7143;DHT22;3613;48.902;9.204;2023-09-12T05:34:42;21.00;64.90
7143;DHT22;3613;48.902;9.204;2023-09-12T05:37:13;21.20;1.00
7143;DHT22;3613;48.902;9.204;2023-09-12T05:39:41;21.10;1.00
7143;DHT22;3613;48.902;9.204;2023-09-12T05:42:10;21.20;1.00
7143;DHT22;3613;48.902;9.204;2023-09-12T05:44:39;21.60;1.00
7143;DHT22;3613;48.902;9.204;2023-09-12T05:47:09;21.90;99.90
7143;DHT22;3613;48.902;9.204;2023-09-12T05:49:35;22.40;1.00
7143;DHT22;3613;48.902;9.204;2023-09-12T05:52:03;22.60;1.00
7143;DHT22;3613;48.902;9.204;2023-09-12T05:54:28;23.20;99.90
7143;DHT22;3613;48.902;9.204;2023-09-12T05:56:54;24.30;1.00
7143;DHT22;3613;48.902;9.204;2023-09-12T05:59:22;25.20;1.00
7143;DHT22;3613;48.902;9.204;2023-09-12T06:01:47;26.00;99.90
7143;DHT22;3613;48.902;9.204;2023-09-12T06:04:16;26.50;99.90
7143;DHT22;3613;48.902;9.204;2023-09-12T06:06:42;26.10;1.00
7143;DHT22;3613;48.902;9.204;2023-09-12T06:09:10;25.90;39.90
7143;DHT22;3613;48.902;9.204;2023-09-12T06:11:36;26.50;1.00
7143;DHT22;3613;48.902;9.204;2023-09-12T06:14:06;26.60;1.00
7143;DHT22;3613;48.902;9.204;2023-09-12T06:16:31;26.40;1.00
7143;DHT22;3613;48.902;9.204;2023-09-12T06:18:57;26.50;1.00
7143;DHT22;3613;48.902;9.204;2023-09-12T06:21:25;27.40;1.00
7143;DHT22;3613;48.902;9.204;2023-09-12T06:24:09;28.40;1.00
7143;DHT22;3613;48.902;9.204;2023-09-12T06:26:36;29.30;99.90
7143;DHT22;3613;48.902;9.204;2023-09-12T06:29:02;29.60;1.00
7143;DHT22;3613;48.902;9.204;2023-09-12T06:31:28;30.40;1.00
7143;DHT22;3613;48.902;9.204;2023-09-12T06:33:56;30.90;1.00
7143;DHT22;3613;48.902;9.204;2023-09-12T06:36:25;30.00;1.00
7143;DHT22;3613;48.902;9.204;2023-09-12T06:38:53;28.80;1.00
7143;DHT22;3613;48.902;9.204;2023-09-12T06:41:19;27.90;99.90
7143;DHT22;3613;48.902;9.204;2023-09-12T06:43:50;27.20;1.00
7143;DHT22;3613;48.902;9.204;2023-09-12T06:46:16;26.30;1.00
7143;DHT22;3613;48.902;9.204;2023-09-12T06:48:47;25.60;99.90
7143;DHT22;3613;48.902;9.204;2023-09-12T06:51:14;24.80;1.00
7143;DHT22;3613;48.902;9.204;2023-09-12T06:53:40;24.40;99.90
7143;DHT22;3613;48.902;9.204;2023-09-12T06:56:06;23.90;99.90
7143;DHT22;3613;48.902;9.204;2023-09-12T06:58:32;23.80;1.00
7143;DHT22;3613;48.902;9.204;2023-09-12T07:01:07;23.70;1.00
7143;DHT22;3613;48.902;9.204;2023-09-12T07:03:36;23.40;67.70
7143;DHT22;3613;48.902;9.204;2023-09-12T07:06:03;23.50;99.90
7143;DHT22;3613;48.902;9.204;2023-09-12T07:08:32;23.60;1.00
7143;DHT22;3613;48.902;9.204;2023-09-12T07:11:00;23.70;99.90
7143;DHT22;3613;48.902;9.204;2023-09-12T07:13:32;24.00;99.90
7143;DHT22;3613;48.902;9.204;2023-09-12T07:15:57;24.00;38.90
7143;DHT22;3613;48.902;9.204;2023-09-12T07:18:23;24.30;1.00
7143;DHT22;3613;48.902;9.204;2023-09-12T07:20:59;24.40;1.00
7143;DHT22;3613;48.902;9.204;2023-09-12T07:23:25;24.20;15.40
7143;DHT22;3613;48.902;9.204;2023-09-12T07:25:51;24.30;1.00
7143;DHT22;3613;48.902;9.204;2023-09-12T07:28:17;24.40;1.00
7143;DHT22;3613;48.902;9.204;2023-09-12T07:30:45;24.70;1.00
7143;DHT22;3613;48.902;9.204;2023-09-12T07:33:11;25.00;99.90
7143;DHT22;3613;48.902;9.204;2023-09-12T07:35:37;25.20;99.90
7143;DHT22;3613;48.902;9.204;2023-09-12T07:38:05;25.40;99.90
7143;DHT22;3613;48.902;9.204;2023-09-12T07:40:30;25.40;80.50
7143;DHT22;3613;48.902;9.204;2023-09-12T07:42:56;25.50;36.30
7143;DHT22;3613;48.902;9.204;2023-09-12T07:45:21;25.50;45.30
7143;DHT22;3613;48.902;9.204;2023-09-12T07:47:47;26.20;1.00
7143;DHT22;3613;48.902;9.204;2023-09-12T07:50:16;27.60;99.90
7143;DHT22;3613;48.902;9.204;2023-09-12T07:52:41;28.80;1.00
7143;DHT22;3613;48.902;9.204;2023-09-12T07:55:08;28.80;1.00
7143;DHT22;3613;48.902;9.204;2023-09-12T07:57:34;29.40;1.00
7143;DHT22;3613;48.902;9.204;2023-09-12T08:00:00;30.70;1.00
7143;DHT22;3613;48.902;9.204;2023-09-12T08:02:26;32.40;99.90
7143;DHT22;3613;48.902;9.204;2023-09-12T08:04:52;32.90;1.00
7143;DHT22;3613;48.902;9.204;2023-09-12T08:07:19;33.30;1.00
7143;DHT22;3613;48.902;9.204;2023-09-12T08:09:55;32.50;1.00
7143;DHT22;3613;48.902;9.204;2023-09-12T08:12:24;31.60;99.90
7143;DHT22;3613;48.902;9.204;2023-09-12T08:14:51;32.50;99.90
7143;DHT22;3613;48.902;9.204;2023-09-12T08:17:17;33.70;1.00
7143;DHT22;3613;48.902;9.204;2023-09-12T08:19:43;33.80;1.00
7143;DHT22;3613;48.902;9.204;2023-09-12T08:22:10;33.90;1.00
7143;DHT22;3613;48.902;9.204;2023-09-12T08:24:36;33.40;1.00
7143;DHT22;3613;48.902;9.204;2023-09-12T08:27:03;32.60;1.00
7143;DHT22;3613;48.902;9.204;2023-09-12T08:29:29;31.50;99.90
7143;DHT22;3613;48.902;9.204;2023-09-12T08:31:54;30.70;99.90
7143;DHT22;3613;48.902;9.204;2023-09-12T08:34:21;30.00;1.00
7143;DHT22;3613;48.902;9.204;2023-09-12T08:36:46;29.80;99.90
7143;DHT22;3613;48.902;9.204;2023-09-12T08:39:15;30.30;1.00
7143;DHT22;3613;48.902;9.204;2023-09-12T08:41:44;30.00;64.30
7143;DHT22;3613;48.902;9.204;2023-09-12T08:44:12;30.00;92.40
7143;DHT22;3613;48.902;9.204;2023-09-12T08:46:39;30.10;7.30
7143;DHT22;3613;48.902;9.204;2023-09-12T08:49:08;29.70;99.90
7143;DHT22;3613;48.902;9.204;2023-09-12T08:51:41;29.70;99.90
7143;DHT22;3613;48.902;9.204;2023-09-12T08:54:07;30.20;99.90
7143;DHT22;3613;48.902;9.204;2023-09-12T08:56:34;30.20;37.00
7143;DHT22;3613;48.902;9.204;2023-09-12T08:59:01;30.30;99.90
7143;DHT22;3613;48.902;9.204;2023-09-12T09:01:30;31.70;1.00
7143;DHT22;3613;48.902;9.204;2023-09-12T09:03:57;33.10;99.90
7143;DHT22;3613;48.902;9.204;2023-09-12T09:06:28;33.90;1.00
7143;DHT22;3613;48.902;9.204;2023-09-12T09:08:55;34.50;1.00
7143;DHT22;3613;48.902;9.204;2023-09-12T09:11:24;35.20;99.90
7143;DHT22;3613;48.902;9.204;2023-09-12T09:13:53;35.50;99.90
7143;DHT22;3613;48.902;9.204;2023-09-12T09:16:19;35.60;99.90
7143;DHT22;3613;48.902;9.204;2023-09-12T09:18:53;36.00;68.00
7143;DHT22;3613;48.902;9.204;2023-09-12T09:21:21;36.20;99.90
7143;DHT22;3613;48.902;9.204;2023-09-12T09:23:53;35.80;99.90
7143;DHT22;3613;48.902;9.204;2023-09-12T09:26:19;35.30;1.00
7143;DHT22;3613;48.902;9.204;2023-09-12T09:28:45;35.20;99.90
7143;DHT22;3613;48.902;9.204;2023-09-12T09:31:12;35.00;26.00
7143;DHT22;3613;48.902;9.204;2023-09-12T09:33:39;35.60;45.30
7143;DHT22;3613;48.902;9.204;2023-09-12T09:36:06;34.90;1.00
7143;DHT22;3613;48.902;9.204;2023-09-12T09:38:34;34.90;1.00
7143;DHT22;3613;48.902;9.204;2023-09-12T09:41:03;35.10;99.90
7143;DHT22;3613;48.902;9.204;2023-09-12T09:43:31;34.60;1.00
7143;DHT22;3613;48.902;9.204;2023-09-12T09:46:00;34.50;99.90
7143;DHT22;3613;48.902;9.204;2023-09-12T09:48:26;35.10;1.00
7143;DHT22;3613;48.902;9.204;2023-09-12T09:51:03;35.00;1.00
7143;DHT22;3613;48.902;9.204;2023-09-12T09:53:32;34.70;88.90
7143;DHT22;3613;48.902;9.204;2023-09-12T09:56:09;34.40;1.00
7143;DHT22;3613;48.902;9.204;2023-09-12T09:58:52;34.00;1.00
7143;DHT22;3613;48.902;9.204;2023-09-12T10:01:28;33.90;1.00
7143;DHT22;3613;48.902;9.204;2023-09-12T10:03:58;34.30;1.00
7143;DHT22;3613;48.902;9.204;2023-09-12T10:06:23;34.30;1.00
7143;DHT22;3613;48.902;9.204;2023-09-12T10:08:53;34.10;1.00
7143;DHT22;3613;48.902;9.204;2023-09-12T10:11:23;33.80;1.00
7143;DHT22;3613;48.902;9.204;2023-09-12T10:13:57;34.20;1.00
7143;DHT22;3613;48.902;9.204;2023-09-12T10:16:35;34.20;1.00
7143;DHT22;3613;48.902;9.204;2023-09-12T10:19:25;33.90;1.00
7143;DHT22;3613;48.902;9.204;2023-09-12T10:22:09;33.90;1.00
7143;DHT22;3613;48.902;9.204;2023-09-12T10:24:39;34.20;1.00
7143;DHT22;3613;48.902;9.204;2023-09-12T10:27:08;34.10;1.00
7143;DHT22;3613;48.902;9.204;2023-09-12T10:29:36;33.80;20.50
7143;DHT22;3613;48.902;9.204;2023-09-12T10:32:02;33.70;1.00
7143;DHT22;3613;48.902;9.204;2023-09-12T10:34:30;33.60;1.00
7143;DHT22;3613;48.902;9.204;2023-09-12T10:36:59;33.70;1.00
7143;DHT22;3613;48.902;9.204;2023-09-12T10:39:27;33.90;1.00
7143;DHT22;3613;48.902;9.204;2023-09-12T10:42:00;34.00;1.00
7143;DHT22;3613;48.902;9.204;2023-09-12T10:44:32;33.80;1.00
7143;DHT22;3613;48.902;9.204;2023-09-12T10:47:01;33.90;99.90
7143;DHT22;3613;48.902;9.204;2023-09-12T10:49:28;34.10;1.00
7143;DHT22;3613;48.902;9.204;2023-09-12T10:51:55;34.40;1.00
7143;DHT22;3613;48.902;9.204;2023-09-12T10:54:40;34.70;1.00
7143;DHT22;3613;48.902;9.204;2023-09-12T10:59:32;34.60;99.90
7143;DHT22;3613;48.902;9.204;2023-09-12T11:05:07;34.50;48.40
7143;DHT22;3613;48.902;9.204;2023-09-12T11:07:59;34.90;1.00
7143;DHT22;3613;48.902;9.204;2023-09-12T11:10:26;35.00;1.00
7143;DHT22;3613;48.902;9.204;2023-09-12T11:12:53;35.40;1.00
7143;DHT22;3613;48.902;9.204;2023-09-12T11:15:24;35.50;1.00
7143;DHT22;3613;48.902;9.204;2023-09-12T11:18:11;35.60;1.00
7143;DHT22;3613;48.902;9.204;2023-09-12T11:23:16;35.40;1.00
7143;DHT22;3613;48.902;9.204;2023-09-12T11:25:45;35.20;1.00
7143;DHT22;3613;48.902;9.204;2023-09-12T11:28:10;35.50;1.00
7143;DHT22;3613;48.902;9.204;2023-09-12T11:30:55;35.30;1.00
7143;DHT22;3613;48.902;9.204;2023-09-12T11:33:24;35.70;1.00
7143;DHT22;3613;48.902;9.204;2023-09-12T11:35:53;36.30;99.90
7143;DHT22;3613;48.902;9.204;2023-09-12T11:38:27;36.60;1.00
7143;DHT22;3613;48.902;9.204;2023-09-12T11:40:57;37.00;1.00
7143;DHT22;3613;48.902;9.204;2023-09-12T11:43:24;36.80;1.00
7143;DHT22;3613;48.902;9.204;2023-09-12T11:45:51;36.70;1.00
7143;DHT22;3613;48.902;9.204;2023-09-12T11:48:20;36.40;99.90
7143;DHT22;3613;48.902;9.204;2023-09-12T11:50:56;36.40;62.00
7143;DHT22;3613;48.902;9.204;2023-09-12T11:53:28;36.40;99.90
7143;DHT22;3613;48.902;9.204;2023-09-12T11:55:59;36.70;43.80
7143;DHT22;3613;48.902;9.204;2023-09-12T11:58:26;36.90;99.90
7143;DHT22;3613;48.902;9.204;2023-09-12T12:00:56;37.00;1.00
7143;DHT22;3613;48.902;9.204;2023-09-12T12:03:24;37.20;99.90
7143;DHT22;3613;48.902;9.204;2023-09-12T12:05:54;37.60;1.00
7143;DHT22;3613;48.902;9.204;2023-09-12T12:08:22;38.30;1.00
7143;DHT22;3613;48.902;9.204;2023-09-12T12:10:52;38.40;99.90
7143;DHT22;3613;48.902;9.204;2023-09-12T12:13:19;38.20;1.30
7143;DHT22;3613;48.902;9.204;2023-09-12T12:15:47;38.40;1.00
7143;DHT22;3613;48.902;9.204;2023-09-12T12:18:13;38.70;1.00
7143;DHT22;3613;48.902;9.204;2023-09-12T12:20:39;38.70;1.00
7143;DHT22;3613;48.902;9.204;2023-09-12T12:23:07;38.60;1.00
7143;DHT22;3613;48.902;9.204;2023-09-12T12:25:34;38.60;1.00
7143;DHT22;3613;48.902;9.204;2023-09-12T12:28:03;39.00;95.10
7143;DHT22;3613;48.902;9.204;2023-09-12T12:30:35;38.90;1.00
7143;DHT22;3613;48.902;9.204;2023-09-12T12:33:09;38.60;99.90
7143;DHT22;3613;48.902;9.204;2023-09-12T12:35:35;38.60;99.90
7143;DHT22;3613;48.902;9.204;2023-09-12T12:38:03;38.90;99.90
7143;DHT22;3613;48.902;9.204;2023-09-12T12:40:28;39.50;99.90
7143;DHT22;3613;48.902;9.204;2023-09-12T12:42:54;39.70;1.00
7143;DHT22;3613;48.902;9.204;2023-09-12T12:45:23;39.70;1.00
7143;DHT22;3613;48.902;9.204;2023-09-12T12:47:58;39.90;1.00
7143;DHT22;3613;48.902;9.204;2023-09-12T12:50:26;40.10;1.00
7143;DHT22;3613;48.902;9.204;2023-09-12T12:52:52;39.70;1.00
7143;DHT22;3613;48.902;9.204;2023-09-12T12:55:19;39.20;1.00
7143;DHT22;3613;48.902;9.204;2023-09-12T12:57:48;38.80;1.00
7143;DHT22;3613;48.902;9.204;2023-09-12T13:00:15;38.70;1.00
7143;DHT22;3613;48.902;9.204;2023-09-12T13:02:43;38.50;1.00
7143;DHT22;3613;48.902;9.204;2023-09-12T13:05:28;38.00;1.00
7143;DHT22;3613;48.902;9.204;2023-09-12T13:07:54;36.70;99.90
7143;DHT22;3613;48.902;9.204;2023-09-12T13:10:20;35.40;99.90
7143;DHT22;3613;48.902;9.204;2023-09-12T13:12:47;34.10;99.90
7143;DHT22;3613;48.902;9.204;2023-09-12T13:15:13;33.30;99.90
7143;DHT22;3613;48.902;9.204;2023-09-12T13:17:40;33.50;99.90
7143;DHT22;3613;48.902;9.204;2023-09-12T13:20:08;33.80;99.90
7143;DHT22;3613;48.902;9.204;2023-09-12T13:22:35;33.90;99.90
7143;DHT22;3613;48.902;9.204;2023-09-12T13:25:00;34.10;99.90
7143;DHT22;3613;48.902;9.204;2023-09-12T13:27:28;34.10;99.90
7143;DHT22;3613;48.902;9.204;2023-09-12T13:29:54;33.50;99.90
7143;DHT22;3613;48.902;9.204;2023-09-12T13:32:20;33.00;99.90
7143;DHT22;3613;48.902;9.204;2023-09-12T13:34:45;32.70;1.00
7143;DHT22;3613;48.902;9.204;2023-09-12T13:37:11;32.90;99.90
7143;DHT22;3613;48.902;9.204;2023-09-12T13:39:37;32.80;1.00
7143;DHT22;3613;48.902;9.204;2023-09-12T13:42:03;32.60;1.00
7143;DHT22;3613;48.902;9.204;2023-09-12T13:44:33;32.50;1.00
7143;DHT22;3613;48.902;9.204;2023-09-12T13:46:59;32.30;99.90
7143;DHT22;3613;48.902;9.204;2023-09-12T13:49:24;32.10;99.90
7143;DHT22;3613;48.902;9.204;2023-09-12T13:51:50;31.90;1.00
7143;DHT22;3613;48.902;9.204;2023-09-12T13:54:18;31.90;1.00
7143;DHT22;3613;48.902;9.204;2023-09-12T13:56:48;31.80;1.00
7143;DHT22;3613;48.902;9.204;2023-09-12T13:59:16;31.60;1.00
7143;DHT22;3613;48.902;9.204;2023-09-12T14:01:46;31.40;99.90
7143;DHT22;3613;48.902;9.204;2023-09-12T14:04:14;31.20;99.90
7143;DHT22;3613;48.902;9.204;2023-09-12T14:06:42;31.10;1.00
7143;DHT22;3613;48.902;9.204;2023-09-12T14:09:10;31.20;1.00
7143;DHT22;3613;48.902;9.204;2023-09-12T14:11:36;31.30;41.00
7143;DHT22;3613;48.902;9.204;2023-09-12T14:14:03;31.10;1.00
7143;DHT22;3613;48.902;9.204;2023-09-12T14:16:31;31.00;99.90
7143;DHT22;3613;48.902;9.204;2023-09-12T14:18:56;30.90;1.00
7143;DHT22;3613;48.902;9.204;2023-09-12T14:21:24;30.90;99.90
7143;DHT22;3613;48.902;9.204;2023-09-12T14:23:54;30.80;95.90
7143;DHT22;3613;48.902;9.204;2023-09-12T14:26:20;30.90;1.00
7143;DHT22;3613;48.902;9.204;2023-09-12T14:28:45;30.90;1.00
7143;DHT22;3613;48.902;9.204;2023-09-12T14:31:11;30.90;1.00
7143;DHT22;3613;48.902;9.204;2023-09-12T14:33:40;30.90;1.00
7143;DHT22;3613;48.902;9.204;2023-09-12T14:36:08;31.00;1.00
7143;DHT22;3613;48.902;9.204;2023-09-12T14:38:35;31.00;1.00
7143;DHT22;3613;48.902;9.204;2023-09-12T14:41:01;30.90;1.00
7143;DHT22;3613;48.902;9.204;2023-09-12T14:43:31;30.90;99.90
7143;DHT22;3613;48.902;9.204;2023-09-12T14:45:59;30.70;99.90
7143;DHT22;3613;48.902;9.204;2023-09-12T14:48:25;30.60;1.00
7143;DHT22;3613;48.902;9.204;2023-09-12T14:50:51;30.50;99.90
7143;DHT22;3613;48.902;9.204;2023-09-12T14:53:17;30.50;99.90
7143;DHT22;3613;48.902;9.204;2023-09-12T14:55:42;30.40;99.90
7143;DHT22;3613;48.902;9.204;2023-09-12T14:58:11;30.40;99.90
7143;DHT22;3613;48.902;9.204;2023-09-12T15:00:36;30.40;18.00
7143;DHT22;3613;48.902;9.204;2023-09-12T15:03:03;30.50;99.90
7143;DHT22;3613;48.902;9.204;2023-09-12T15:05:29;30.60;99.90
7143;DHT22;3613;48.902;9.204;2023-09-12T15:07:54;30.70;99.90
7143;DHT22;3613;48.902;9.204;2023-09-12T15:10:23;30.80;89.40
7143;DHT22;3613;48.902;9.204;2023-09-12T15:12:48;30.90;1.00
7143;DHT22;3613;48.902;9.204;2023-09-12T15:15:14;31.00;1.00
7143;DHT22;3613;48.902;9.204;2023-09-12T15:17:40;31.20;1.00
7143;DHT22;3613;48.902;9.204;2023-09-12T15:20:08;31.20;1.00
7143;DHT22;3613;48.902;9.204;2023-09-12T15:22:34;31.30;1.00
7143;DHT22;3613;48.902;9.204;2023-09-12T15:25:01;31.30;99.90
7143;DHT22;3613;48.902;9.204;2023-09-12T15:27:27;31.40;1.00
7143;DHT22;3613;48.902;9.204;2023-09-12T15:29:54;31.40;1.00
7143;DHT22;3613;48.902;9.204;2023-09-12T15:32:20;31.40;99.90
7143;DHT22;3613;48.902;9.204;2023-09-12T15:34:45;31.30;99.90
7143;DHT22;3613;48.902;9.204;2023-09-12T15:37:13;31.20;1.00
7143;DHT22;3613;48.902;9.204;2023-09-12T15:39:39;31.20;1.00
7143;DHT22;3613;48.902;9.204;2023-09-12T15:42:05;31.20;99.90
7143;DHT22;3613;48.902;9.204;2023-09-12T15:44:31;31.20;99.90
7143;DHT22;3613;48.902;9.204;2023-09-12T15:46:57;31.20;99.90
7143;DHT22;3613;48.902;9.204;2023-09-12T15:49:24;31.40;99.90
7143;DHT22;3613;48.902;9.204;2023-09-12T15:51:52;31.30;99.90
7143;DHT22;3613;48.902;9.204;2023-09-12T15:54:20;31.20;1.00
7143;DHT22;3613;48.902;9.204;2023-09-12T15:56:48;31.00;1.00
7143;DHT22;3613;48.902;9.204;2023-09-12T15:59:14;30.90;1.00
7143;DHT22;3613;48.902;9.204;2023-09-12T16:01:39;30.70;99.90
7143;DHT22;3613;48.902;9.204;2023-09-12T16:04:07;30.50;99.90
7143;DHT22;3613;48.902;9.204;2023-09-12T16:06:36;30.30;1.00
7143;DHT22;3613;48.902;9.204;2023-09-12T16:09:04;30.30;99.90
7143;DHT22;3613;48.902;9.204;2023-09-12T16:11:35;30.30;99.90
7143;DHT22;3613;48.902;9.204;2023-09-12T16:14:01;30.30;99.90
7143;DHT22;3613;48.902;9.204;2023-09-12T16:16:29;30.30;1.00
7143;DHT22;3613;48.902;9.204;2023-09-12T16:18:54;30.40;1.00
7143;DHT22;3613;48.902;9.204;2023-09-12T16:21:20;30.50;99.90